x

Luke Offshore Test Platform - 64 Nm South Of Dauphin Island, Al (42040) Wave Buoy

9:50am - Fri 19th Sep 2014 All times are CDT. -5 hours from GMT.

  • Sig Wave height 1.6ft
  • Peak Period 4s
  • Average Period 3s
  • Wind
    22mph, 27mph gusts
  • Sea Temp 84°f
  • Air Temp 76°f
  • Sea Pressure 1014.4mb
  • Luke Offshore Test Platform - 64 Nm South Of Dauphin Island, Al
  • Luke Offshore Test Platform - 64 Nm South Of Dauphin Island, Al

More Historic Weather Station data

Upgrade to MSW Pro to gain access to the past 30 days of data for over 8000 Wavebouys and Weather Stations around the globe.

Join Pro

Comparision Forecast

View Surf forecast
   
Fri 09/19 9:50am 1.6ft 4s 3s 22 27 mph 1014.4mb 84f 76f
8:50am 1.6ft 4s 3s 13 16 mph 1014.2mb 84f 79f
7:50am 1.6ft 4s 3s 11 16 mph 1014.2mb 84f 78f
6:50am 2ft 4s 4s 13 16 mph 1013.8mb 84f 77f
5:50am 1.6ft 3s 3s 16 20 mph 1013.5mb 84f 76f
4:50am 2.5ft 4s 4s 16 20 mph 1013.3mb 84f 76f
3:50am 2ft 3s 3s 16 20 mph 1013.2mb 84f 74f
2:50am 1.3ft 3s 3s 13 18 mph 1013.8mb 85f 76f
1:50am 1ft 3s 3s 22 27 mph 1013mb 85f 75f
12:50am 0.7ft  -  3s 7 9 mph 1013.6mb 85f 82f
Thu 09/18 11:50pm 0.7ft  -  4s 7 11 mph 1014mb 85f 78f
10:50pm 0.7ft  -  4s 4
mph
1013.8mb 85f 82f
9:50pm 0.7ft  -  4s 2 4 mph 1014mb 85f 83f
8:50pm 0.7ft  -  4s 4
mph
1013.6mb 85f 83f
7:50pm 0.7ft  -  4s 2 4 mph 1012.9mb 85f 83f
6:50pm 0.7ft  -  4s 4 7 mph 1012.7mb 85f 83f
5:50pm 0.7ft  -  4s 9 11 mph 1012.1mb 86f 83f
4:50pm 1ft 7s 4s 9 11 mph 1011.9mb 86f 83f
3:50pm 1ft 7s 4s 7 9 mph 1012.3mb 87f 84f
2:50pm 1ft 5s 4s 7 9 mph 1012.9mb 87f 83f
1:50pm 1ft 7s 4s 9 11 mph 1013.3mb 87f 84f
12:50pm 1ft 6s 4s 7 9 mph 1014.1mb 87f 83f
11:50am 1ft 4s 4s 7
mph
1014.2mb 86f 83f
10:50am 1ft 5s 5s 4
mph
1014.7mb 86f 84f
9:50am 1ft 6s 4s 4 7 mph 1014.4mb 85f 83f
8:50am 1ft 5s 4s 4 7 mph 1014.2mb 85f 83f
7:50am 1ft 6s 5s 2 4 mph 1013.8mb 85f 83f
6:50am 1ft 5s 4s 4 7 mph 1013.2mb 85f 82f
5:50am 1ft 5s 5s 4 7 mph 1012.8mb 85f 82f
4:50am 1ft 5s 5s 2 4 mph 1012.4mb 85f 82f
3:50am 1ft 5s 5s 2 4 mph 1012.4mb 85f 82f
2:50am 1ft 4s 5s 4 7 mph 1012.8mb 85f 82f
1:50am 1.3ft 6s 5s 4
mph
1012.8mb 85f 82f
12:50am 1ft 5s 5s 4 7 mph 1013.2mb 85f 82f
Wed 09/17 11:50pm 1ft 8s 5s 7 9 mph 1013.7mb 85f 82f
10:50pm 1ft 8s 5s 4
mph
1014.1mb 85f 82f
9:50pm 1.3ft 8s 5s 4 7 mph 1014.1mb 85f 82f
8:50pm 1.3ft 5s 5s 7 9 mph 1013.2mb 85f 82f
7:50pm 1.3ft 5s 4s 4 7 mph 1013.3mb 86f 82f
6:50pm 1.3ft 8s 4s 2 4 mph 1013.2mb 86f 82f
5:50pm 1.3ft 4s 4s 2 4 mph 1013.2mb 87f 82f
4:50pm 1.3ft 4s 4s 2 4 mph 1013mb 87f 83f
3:50pm 1.3ft 8s 4s 4 7 mph 1013.3mb 87f 83f
2:50pm 1.3ft 8s 4s 7 9 mph 1013.6mb 87f 82f
1:50pm 1.6ft 6s 4s 7 9 mph 1013.8mb 87f 82f
12:50pm 1.6ft 6s 4s 4 7 mph 1014.5mb 87f 83f
11:50am 1.6ft 5s 4s 4 7 mph 1015.1mb 86f 82f
10:50am 1.6ft 5s 4s 2
mph
1015.3mb 85f 82f
9:50am 1.6ft 4s 4s 2 4 mph 1015.2mb 85f 82f
8:50am 1.6ft 4s 4s 11 13 mph 1014.9mb 85f 79f
7:50am 1.6ft 5s 4s 4 7 mph 1015mb 85f 82f
6:50am 1.6ft 5s 4s 7
mph
1014.8mb 85f 81f
5:50am 1.6ft 5s 4s 7 9 mph 1014.2mb 85f 82f
4:50am 2ft 4s 4s 9 11 mph 1014.2mb 85f 81f
3:50am 2ft 5s 4s 7 9 mph 1014.2mb 85f 81f
2:50am 2.5ft 5s 4s 11 13 mph 1014.2mb 85f 81f
1:50am 2.5ft 4s 4s 11 16 mph 1014.8mb 85f 82f
12:50am 2.5ft 4s 4s 7 9 mph 1015.5mb 85f 81f
Tue 09/16 11:50pm 2.5ft 4s 4s 7 9 mph 1016mb 85f 80f
10:50pm 2.5ft 5s 4s 13 16 mph 1016.1mb 85f 80f
9:50pm 2.5ft 4s 4s 16 18 mph 1016.1mb 85f 78f
8:50pm 2.5ft 4s 4s 22 27 mph 1016.4mb 85f 82f
7:50pm 2.5ft 4s 4s 16 18 mph 1016.2mb 85f 82f
6:50pm 2.5ft 5s 4s 18 20 mph 1015.7mb 85f 82f
5:50pm 2.5ft 5s 4s 18 22 mph 1015.4mb 85f 82f
4:50pm 2ft 4s 4s 16 18 mph 1015.6mb 85f 82f
3:50pm 2ft 5s 4s 11 13 mph 1016.4mb 85f 80f
2:50pm 2.5ft 7s 4s 13 16 mph 1016.6mb 85f 80f
1:50pm 2.5ft 5s 4s 4 7 mph 1017.6mb 85f 79f
12:50pm 2.5ft 5s 4s 13 16 mph 1018.7mb 85f 74f
11:50am 2.5ft 6s 4s 13 16 mph 1018.9mb 85f 81f
10:50am 2.5ft 6s 4s 13 18 mph 1019.5mb 85f 80f
9:50am 2.5ft 6s 4s 16 20 mph 1018.7mb 85f 79f
8:50am 2.5ft 6s 4s 13 16 mph 1019.1mb 85f 79f
7:50am 2.5ft 6s 5s 13 16 mph 1018.9mb 85f 77f
6:50am 2.5ft 7s 4s 13 16 mph 1018.1mb 85f 77f
5:50am 2.5ft 6s 5s 18 27 mph 1018.3mb 85f 81f
4:50am 3ft 7s 4s 13 16 mph 1017.7mb 85f 81f
3:50am 3ft 6s 5s 13 18 mph 1018.3mb 85f 80f
2:50am 3ft 7s 5s 22 25 mph 1018.2mb 85f 79f
1:50am 3ft 8s 5s 7 11 mph 1019mb 86f 83f
12:50am 3ft 7s 5s 9
mph
1018.9mb 86f 83f
Mon 09/15 11:50pm 3ft 7s 5s 9 11 mph 1019.6mb 86f 83f
10:50pm 3ft 7s 5s 7
mph
1019.5mb 86f 83f
9:50pm 3.5ft 7s 5s 7 9 mph 1019.7mb 86f 83f
8:50pm 3.5ft 7s 5s 11 18 mph 1019.1mb 86f 82f
7:50pm 3.5ft 7s 5s 11 13 mph 1018.4mb 86f 82f
6:50pm 3ft 7s 5s 13 16 mph 1018.3mb 86f 82f
5:50pm 2.5ft 7s 5s 16 18 mph 1018.7mb 86f 83f
4:50pm 2.5ft 6s 5s 11 13 mph 1018.2mb 86f 82f